sensor_id;sensor_type;location;lat;lon;timestamp;pressure;altitude;pressure_sealevel;temperature;humidity
75008;BME280;63554;48.940;12.050;2024-01-15T00:00:11;96058.94;;;-5.27;100.00
75008;BME280;63554;48.940;12.050;2024-01-15T00:04:14;96051.34;;;-5.30;100.00
75008;BME280;63554;48.940;12.050;2024-01-15T00:08:18;96076.56;;;-5.27;100.00
75008;BME280;63554;48.940;12.050;2024-01-15T00:12:21;96078.38;;;-5.28;100.00
75008;BME280;63554;48.940;12.050;2024-01-15T00:16:24;96077.00;;;-5.14;100.00
75008;BME280;63554;48.940;12.050;2024-01-15T00:20:26;96072.28;;;-5.02;100.00
75008;BME280;63554;48.940;12.050;2024-01-15T00:24:33;96056.84;;;-4.97;100.00
75008;BME280;63554;48.940;12.050;2024-01-15T00:28:35;96039.88;;;-4.94;100.00
75008;BME280;63554;48.940;12.050;2024-01-15T00:32:39;96050.13;;;-4.91;100.00
75008;BME280;63554;48.940;12.050;2024-01-15T00:36:41;96062.00;;;-4.87;100.00
75008;BME280;63554;48.940;12.050;2024-01-15T00:40:46;96057.25;;;-4.84;100.00
75008;BME280;63554;48.940;12.050;2024-01-15T00:44:48;96056.16;;;-4.73;100.00
75008;BME280;63554;48.940;12.050;2024-01-15T00:48:51;96052.22;;;-4.69;100.00
75008;BME280;63554;48.940;12.050;2024-01-15T00:52:54;96060.84;;;-4.59;100.00
75008;BME280;63554;48.940;12.050;2024-01-15T00:56:58;96051.78;;;-4.56;100.00
75008;BME280;63554;48.940;12.050;2024-01-15T01:01:01;96062.03;;;-4.53;100.00
75008;BME280;63554;48.940;12.050;2024-01-15T01:05:04;96056.06;;;-4.55;100.00
75008;BME280;63554;48.940;12.050;2024-01-15T01:09:07;96080.81;;;-4.56;98.90
75008;BME280;63554;48.940;12.050;2024-01-15T01:13:11;96074.72;;;-4.57;99.55
75008;BME280;63554;48.940;12.050;2024-01-15T01:17:14;96080.16;;;-4.58;99.66
75008;BME280;63554;48.940;12.050;2024-01-15T01:21:17;96084.94;;;-4.53;99.14
75008;BME280;63554;48.940;12.050;2024-01-15T01:25:19;96105.25;;;-4.54;99.94
75008;BME280;63554;48.940;12.050;2024-01-15T01:29:24;96091.38;;;-4.56;99.76
75008;BME280;63554;48.940;12.050;2024-01-15T01:33:27;96101.94;;;-4.56;99.35
75008;BME280;63554;48.940;12.050;2024-01-15T01:37:30;96107.75;;;-4.52;99.10
75008;BME280;63554;48.940;12.050;2024-01-15T01:41:33;96116.47;;;-4.52;99.11
75008;BME280;63554;48.940;12.050;2024-01-15T01:45:37;96101.94;;;-4.56;98.82
75008;BME280;63554;48.940;12.050;2024-01-15T01:49:41;96093.53;;;-4.51;99.55
75008;BME280;63554;48.940;12.050;2024-01-15T01:53:45;96078.69;;;-4.52;99.49
75008;BME280;63554;48.940;12.050;2024-01-15T01:57:48;96091.91;;;-4.52;99.11
75008;BME280;63554;48.940;12.050;2024-01-15T02:01:53;96092.38;;;-4.49;99.52
75008;BME280;63554;48.940;12.050;2024-01-15T02:05:56;96095.22;;;-4.50;99.62
75008;BME280;63554;48.940;12.050;2024-01-15T02:09:59;96091.41;;;-4.48;99.82
75008;BME280;63554;48.940;12.050;2024-01-15T02:14:03;96086.28;;;-4.49;99.19
75008;BME280;63554;48.940;12.050;2024-01-15T02:18:07;96081.69;;;-4.47;99.23
75008;BME280;63554;48.940;12.050;2024-01-15T02:22:10;96090.44;;;-4.47;100.00
75008;BME280;63554;48.940;12.050;2024-01-15T02:26:14;96096.41;;;-4.45;100.00
75008;BME280;63554;48.940;12.050;2024-01-15T02:30:17;96096.06;;;-4.42;100.00
75008;BME280;63554;48.940;12.050;2024-01-15T02:34:20;96101.50;;;-4.43;100.00
75008;BME280;63554;48.940;12.050;2024-01-15T02:38:23;96115.69;;;-4.44;100.00
75008;BME280;63554;48.940;12.050;2024-01-15T02:42:27;96124.13;;;-4.41;100.00
75008;BME280;63554;48.940;12.050;2024-01-15T02:46:30;96122.31;;;-4.40;100.00
75008;BME280;63554;48.940;12.050;2024-01-15T02:50:33;96101.50;;;-4.43;100.00
75008;BME280;63554;48.940;12.050;2024-01-15T02:54:35;96105.66;;;-4.41;100.00
75008;BME280;63554;48.940;12.050;2024-01-15T02:58:39;96123.34;;;-4.33;100.00
75008;BME280;63554;48.940;12.050;2024-01-15T03:02:44;96095.44;;;-4.35;100.00
75008;BME280;63554;48.940;12.050;2024-01-15T03:06:49;96095.44;;;-4.35;100.00
75008;BME280;63554;48.940;12.050;2024-01-15T03:10:52;96100.94;;;-4.29;100.00
75008;BME280;63554;48.940;12.050;2024-01-15T03:14:56;96103.56;;;-4.29;100.00
75008;BME280;63554;48.940;12.050;2024-01-15T03:18:58;96099.41;;;-4.31;100.00
75008;BME280;63554;48.940;12.050;2024-01-15T03:23:01;96100.75;;;-4.27;100.00
75008;BME280;63554;48.940;12.050;2024-01-15T03:27:04;96108.84;;;-4.29;100.00
75008;BME280;63554;48.940;12.050;2024-01-15T03:31:08;96103.56;;;-4.29;100.00
75008;BME280;63554;48.940;12.050;2024-01-15T03:35:11;96098.63;;;-4.24;100.00
75008;BME280;63554;48.940;12.050;2024-01-15T03:39:14;96113.94;;;-4.27;100.00
75008;BME280;63554;48.940;12.050;2024-01-15T03:43:17;96103.38;;;-4.27;100.00
75008;BME280;63554;48.940;12.050;2024-01-15T03:47:21;96099.63;;;-4.25;100.00
75008;BME280;63554;48.940;12.050;2024-01-15T03:51:24;96088.91;;;-4.23;100.00
75008;BME280;63554;48.940;12.050;2024-01-15T03:55:27;96101.31;;;-4.15;100.00
75008;BME280;63554;48.940;12.050;2024-01-15T03:59:30;96086.97;;;-4.05;99.54
75008;BME280;63554;48.940;12.050;2024-01-15T04:03:34;96084.03;;;-4.02;99.63
75008;BME280;63554;48.940;12.050;2024-01-15T04:07:37;96088.97;;;-3.99;99.74
75008;BME280;63554;48.940;12.050;2024-01-15T04:11:39;96081.56;;;-3.95;99.43
75008;BME280;63554;48.940;12.050;2024-01-15T04:15:42;96082.22;;;-3.93;99.14
75008;BME280;63554;48.940;12.050;2024-01-15T04:19:46;96097.44;;;-3.87;99.51
75008;BME280;63554;48.940;12.050;2024-01-15T04:23:49;96105.88;;;-3.83;99.08
75008;BME280;63554;48.940;12.050;2024-01-15T04:27:52;96098.44;;;-3.80;99.45
75008;BME280;63554;48.940;12.050;2024-01-15T04:31:55;96101.75;;;-3.78;99.29
75008;BME280;63554;48.940;12.050;2024-01-15T04:36:03;96096.13;;;-3.83;99.57
75008;BME280;63554;48.940;12.050;2024-01-15T04:40:07;96090.69;;;-3.81;98.83
75008;BME280;63554;48.940;12.050;2024-01-15T04:44:10;96083.75;;;-3.82;99.35
75008;BME280;63554;48.940;12.050;2024-01-15T04:48:12;96082.09;;;-3.83;98.60
75008;BME280;63554;48.940;12.050;2024-01-15T04:52:16;96082.91;;;-3.83;98.62
75008;BME280;63554;48.940;12.050;2024-01-15T04:56:19;96068.38;;;-3.87;98.91
75008;BME280;63554;48.940;12.050;2024-01-15T05:00:22;96068.06;;;-3.84;98.62
75008;BME280;63554;48.940;12.050;2024-01-15T05:04:25;96065.25;;;-3.82;98.61
75008;BME280;63554;48.940;12.050;2024-01-15T05:08:29;96079.94;;;-3.80;98.22
75008;BME280;63554;48.940;12.050;2024-01-15T05:12:31;96068.38;;;-3.79;98.48
75008;BME280;63554;48.940;12.050;2024-01-15T05:16:34;96053.84;;;-3.83;99.01
75008;BME280;63554;48.940;12.050;2024-01-15T05:20:37;96065.25;;;-3.82;99.68
75008;BME280;63554;48.940;12.050;2024-01-15T05:24:41;96069.84;;;-3.84;100.00
75008;BME280;63554;48.940;12.050;2024-01-15T05:28:44;96067.72;;;-3.81;100.00
75008;BME280;63554;48.940;12.050;2024-01-15T05:32:47;96065.72;;;-3.79;100.00
75008;BME280;63554;48.940;12.050;2024-01-15T05:36:49;96064.41;;;-3.74;100.00
75008;BME280;63554;48.940;12.050;2024-01-15T05:40:54;96060.94;;;-3.75;100.00
75008;BME280;63554;48.940;12.050;2024-01-15T05:44:57;96051.19;;;-3.74;100.00
75008;BME280;63554;48.940;12.050;2024-01-15T05:49:00;96063.28;;;-3.72;100.00
75008;BME280;63554;48.940;12.050;2024-01-15T05:53:04;96057.34;;;-3.66;100.00
75008;BME280;63554;48.940;12.050;2024-01-15T05:57:08;96057.34;;;-3.66;100.00
75008;BME280;63554;48.940;12.050;2024-01-15T06:01:11;96062.28;;;-3.63;100.00
75008;BME280;63554;48.940;12.050;2024-01-15T06:05:13;96063.63;;;-3.59;100.00
75008;BME280;63554;48.940;12.050;2024-01-15T06:09:16;96060.34;;;-3.61;100.00
75008;BME280;63554;48.940;12.050;2024-01-15T06:13:20;96043.16;;;-3.56;100.00
75008;BME280;63554;48.940;12.050;2024-01-15T06:17:23;96047.13;;;-3.52;100.00
75008;BME280;63554;48.940;12.050;2024-01-15T06:21:26;96045.13;;;-3.50;100.00
75008;BME280;63554;48.940;12.050;2024-01-15T06:25:29;96044.28;;;-3.51;100.00
75008;BME280;63554;48.940;12.050;2024-01-15T06:29:33;96047.63;;;-3.49;100.00
75008;BME280;63554;48.940;12.050;2024-01-15T06:33:37;96038.38;;;-3.45;100.00
75008;BME280;63554;48.940;12.050;2024-01-15T06:37:40;96037.19;;;-3.42;99.71
75008;BME280;63554;48.940;12.050;2024-01-15T06:41:43;96038.19;;;-3.35;99.79
75008;BME280;63554;48.940;12.050;2024-01-15T06:45:47;96033.22;;;-3.30;99.07
75008;BME280;63554;48.940;12.050;2024-01-15T06:49:50;96036.38;;;-3.26;98.62
75008;BME280;63554;48.940;12.050;2024-01-15T06:53:54;96043.78;;;-3.22;98.84
75008;BME280;63554;48.940;12.050;2024-01-15T06:57:56;96045.47;;;-3.21;98.40
75008;BME280;63554;48.940;12.050;2024-01-15T07:02:00;96053.91;;;-3.17;97.61
75008;BME280;63554;48.940;12.050;2024-01-15T07:06:04;96048.44;;;-3.07;96.73
75008;BME280;63554;48.940;12.050;2024-01-15T07:10:08;96033.88;;;-3.03;96.21
75008;BME280;63554;48.940;12.050;2024-01-15T07:14:11;96048.56;;;-3.01;95.93
75008;BME280;63554;48.940;12.050;2024-01-15T07:18:15;96037.00;;;-3.00;96.07
75008;BME280;63554;48.940;12.050;2024-01-15T07:22:18;96057.34;;;-2.92;96.33
75008;BME280;63554;48.940;12.050;2024-01-15T07:26:21;96045.06;;;-2.85;95.16
75008;BME280;63554;48.940;12.050;2024-01-15T07:30:24;96038.31;;;-2.87;94.67
75008;BME280;63554;48.940;12.050;2024-01-15T07:34:28;96029.84;;;-2.83;94.31
75008;BME280;63554;48.940;12.050;2024-01-15T07:38:31;96031.34;;;-2.80;94.07
75008;BME280;63554;48.940;12.050;2024-01-15T07:42:34;96030.19;;;-2.78;93.66
75008;BME280;63554;48.940;12.050;2024-01-15T07:46:37;96027.84;;;-2.72;93.89
75008;BME280;63554;48.940;12.050;2024-01-15T07:50:43;96031.28;;;-2.64;93.68
75008;BME280;63554;48.940;12.050;2024-01-15T07:54:46;96038.00;;;-2.36;97.43
75008;BME280;63554;48.940;12.050;2024-01-15T07:58:48;96036.09;;;-1.88;98.93
75008;BME280;63554;48.940;12.050;2024-01-15T08:02:51;96033.97;;;-1.93;91.91
75008;BME280;63554;48.940;12.050;2024-01-15T08:06:55;96043.41;;;-2.30;91.27
75008;BME280;63554;48.940;12.050;2024-01-15T08:10:59;96044.97;;;-2.44;91.23
75008;BME280;63554;48.940;12.050;2024-01-15T08:15:02;96045.78;;;-2.43;91.43
75008;BME280;63554;48.940;12.050;2024-01-15T08:19:06;96040.31;;;-2.42;90.98
75008;BME280;63554;48.940;12.050;2024-01-15T08:23:11;96031.56;;;-2.42;90.87
75008;BME280;63554;48.940;12.050;2024-01-15T08:27:14;96021.44;;;-2.39;91.11
75008;BME280;63554;48.940;12.050;2024-01-15T08:31:17;96021.56;;;-2.32;90.64
75008;BME280;63554;48.940;12.050;2024-01-15T08:35:20;96017.78;;;-2.29;90.25
75008;BME280;63554;48.940;12.050;2024-01-15T08:39:25;96009.28;;;-2.25;89.54
75008;BME280;63554;48.940;12.050;2024-01-15T08:43:28;96016.22;;;-2.15;88.92
75008;BME280;63554;48.940;12.050;2024-01-15T08:47:32;96008.38;;;-2.09;87.67
75008;BME280;63554;48.940;12.050;2024-01-15T08:51:35;96009.78;;;-1.98;87.74
75008;BME280;63554;48.940;12.050;2024-01-15T08:55:40;95999.50;;;-1.93;87.25
75008;BME280;63554;48.940;12.050;2024-01-15T08:59:45;96013.34;;;-1.83;86.68
75008;BME280;63554;48.940;12.050;2024-01-15T09:03:48;96012.31;;;-1.73;85.35
75008;BME280;63554;48.940;12.050;2024-01-15T09:07:51;96006.53;;;-1.54;85.00
75008;BME280;63554;48.940;12.050;2024-01-15T09:11:55;96011.66;;;-1.52;83.65
75008;BME280;63554;48.940;12.050;2024-01-15T09:15:58;95994.25;;;-1.55;83.46
75008;BME280;63554;48.940;12.050;2024-01-15T09:20:02;95990.28;;;-1.51;83.63
75008;BME280;63554;48.940;12.050;2024-01-15T09:24:06;96006.69;;;-1.32;84.43
75008;BME280;63554;48.940;12.050;2024-01-15T09:28:10;95994.53;;;-1.27;82.53
75008;BME280;63554;48.940;12.050;2024-01-15T09:32:13;96011.59;;;-1.21;82.84
75008;BME280;63554;48.940;12.050;2024-01-15T09:36:17;96015.31;;;-1.30;81.77
75008;BME280;63554;48.940;12.050;2024-01-15T09:40:20;96020.06;;;-1.26;81.64
75008;BME280;63554;48.940;12.050;2024-01-15T09:44:25;96016.72;;;-1.20;82.37
75008;BME280;63554;48.940;12.050;2024-01-15T09:48:28;96022.03;;;-1.05;82.50
75008;BME280;63554;48.940;12.050;2024-01-15T09:52:31;96014.75;;;-0.88;83.91
75008;BME280;63554;48.940;12.050;2024-01-15T09:56:36;96003.41;;;-0.67;80.21
75008;BME280;63554;48.940;12.050;2024-01-15T10:00:40;96009.16;;;-0.63;78.73
75008;BME280;63554;48.940;12.050;2024-01-15T10:04:45;95999.09;;;-0.68;79.29
75008;BME280;63554;48.940;12.050;2024-01-15T10:08:49;96016.75;;;-0.75;78.37
75008;BME280;63554;48.940;12.050;2024-01-15T10:12:53;96002.97;;;-0.70;78.82
75008;BME280;63554;48.940;12.050;2024-01-15T10:16:58;95995.81;;;-0.70;78.93
75008;BME280;63554;48.940;12.050;2024-01-15T10:21:02;95997.91;;;-0.65;79.07
75008;BME280;63554;48.940;12.050;2024-01-15T10:25:05;95990.78;;;-0.65;77.83
75008;BME280;63554;48.940;12.050;2024-01-15T10:29:08;95980.88;;;-0.71;78.05
75008;BME280;63554;48.940;12.050;2024-01-15T10:33:13;95999.84;;;-0.74;77.71
75008;BME280;63554;48.940;12.050;2024-01-15T10:37:17;95968.16;;;-0.75;77.92
75008;BME280;63554;48.940;12.050;2024-01-15T10:41:20;95960.25;;;-0.69;78.98
75008;BME280;63554;48.940;12.050;2024-01-15T10:45:23;95956.59;;;-0.68;78.47
75008;BME280;63554;48.940;12.050;2024-01-15T10:49:28;95950.66;;;-0.70;78.43
75008;BME280;63554;48.940;12.050;2024-01-15T10:53:35;95961.56;;;-0.65;79.33
75008;BME280;63554;48.940;12.050;2024-01-15T10:57:38;95947.06;;;-0.77;79.22
75008;BME280;63554;48.940;12.050;2024-01-15T11:01:42;95953.03;;;-0.75;79.47
75008;BME280;63554;48.940;12.050;2024-01-15T11:05:47;95966.19;;;-0.67;79.90
75008;BME280;63554;48.940;12.050;2024-01-15T11:09:50;95946.97;;;-0.69;80.69
75008;BME280;63554;48.940;12.050;2024-01-15T11:13:53;95941.03;;;-0.71;80.82
75008;BME280;63554;48.940;12.050;2024-01-15T11:17:58;95951.56;;;-0.63;80.24
75008;BME280;63554;48.940;12.050;2024-01-15T11:22:04;95945.22;;;-0.62;80.35
75008;BME280;63554;48.940;12.050;2024-01-15T11:26:27;95946.16;;;-0.54;79.96
75008;BME280;63554;48.940;12.050;2024-01-15T11:30:30;95931.19;;;-0.41;80.08
75008;BME280;63554;48.940;12.050;2024-01-15T11:34:52;95954.31;;;-0.41;80.15
75008;BME280;63554;48.940;12.050;2024-01-15T11:38:57;95951.47;;;-0.54;80.43
75008;BME280;63554;48.940;12.050;2024-01-15T11:43:00;95951.66;;;-0.56;80.59
75008;BME280;63554;48.940;12.050;2024-01-15T11:47:04;95956.16;;;-0.56;80.15
75008;BME280;63554;48.940;12.050;2024-01-15T11:51:08;95937.91;;;-0.60;79.34
75008;BME280;63554;48.940;12.050;2024-01-15T11:55:19;95942.47;;;-0.53;80.34
75008;BME280;63554;48.940;12.050;2024-01-15T11:59:22;95946.69;;;-0.59;78.79
75008;BME280;63554;48.940;12.050;2024-01-15T12:03:25;95930.31;;;-0.63;79.69
75008;BME280;63554;48.940;12.050;2024-01-15T12:07:28;95925.72;;;-0.69;80.29
75008;BME280;63554;48.940;12.050;2024-01-15T12:11:34;95925.28;;;-0.72;80.72
75008;BME280;63554;48.940;12.050;2024-01-15T12:15:39;95931.25;;;-0.70;81.84
75008;BME280;63554;48.940;12.050;2024-01-15T12:19:44;95930.69;;;-0.81;83.10
75008;BME280;63554;48.940;12.050;2024-01-15T12:23:47;95931.50;;;-0.95;85.35
75008;BME280;63554;48.940;12.050;2024-01-15T12:27:51;95934.25;;;-1.03;88.06
75008;BME280;63554;48.940;12.050;2024-01-15T12:31:54;95917.97;;;-1.15;89.65
75008;BME280;63554;48.940;12.050;2024-01-15T12:35:57;95913.84;;;-1.17;89.46
75008;BME280;63554;48.940;12.050;2024-01-15T12:40:00;95918.06;;;-1.23;90.43
75008;BME280;63554;48.940;12.050;2024-01-15T12:44:05;95909.25;;;-1.24;91.36
75008;BME280;63554;48.940;12.050;2024-01-15T12:48:08;95911.53;;;-1.21;91.41
75008;BME280;63554;48.940;12.050;2024-01-15T12:52:11;95906.88;;;-1.18;90.77
75008;BME280;63554;48.940;12.050;2024-01-15T12:56:14;95890.66;;;-1.24;90.89
75008;BME280;63554;48.940;12.050;2024-01-15T13:00:18;95887.66;;;-1.21;91.06
75008;BME280;63554;48.940;12.050;2024-01-15T13:04:22;95885.81;;;-1.20;91.42
75008;BME280;63554;48.940;12.050;2024-01-15T13:08:27;95895.28;;;-1.17;92.61
75008;BME280;63554;48.940;12.050;2024-01-15T13:12:31;95883.91;;;-1.26;93.19
75008;BME280;63554;48.940;12.050;2024-01-15T13:16:36;95882.78;;;-1.32;94.07
75008;BME280;63554;48.940;12.050;2024-01-15T13:20:38;95891.88;;;-1.26;94.52
75008;BME280;63554;48.940;12.050;2024-01-15T13:24:41;95888.66;;;-1.36;95.58
75008;BME280;63554;48.940;12.050;2024-01-15T13:28:44;95901.94;;;-1.36;96.77
75008;BME280;63554;48.940;12.050;2024-01-15T13:32:48;95890.94;;;-1.33;97.19
75008;BME280;63554;48.940;12.050;2024-01-15T13:36:51;95889.38;;;-1.43;98.07
75008;BME280;63554;48.940;12.050;2024-01-15T13:40:55;95916.81;;;-1.50;99.80
75008;BME280;63554;48.940;12.050;2024-01-15T13:44:57;95904.63;;;-1.60;100.00
75008;BME280;63554;48.940;12.050;2024-01-15T13:49:02;95899.75;;;-1.71;100.00
75008;BME280;63554;48.940;12.050;2024-01-15T13:53:06;95896.81;;;-1.76;100.00
75008;BME280;63554;48.940;12.050;2024-01-15T13:57:11;95898.69;;;-1.85;100.00
75008;BME280;63554;48.940;12.050;2024-01-15T14:01:14;95909.31;;;-1.85;100.00
75008;BME280;63554;48.940;12.050;2024-01-15T14:05:18;95907.53;;;-1.92;100.00
75008;BME280;63554;48.940;12.050;2024-01-15T14:09:21;95911.38;;;-1.95;100.00
75008;BME280;63554;48.940;12.050;2024-01-15T14:13:24;95903.78;;;-1.98;100.00
75008;BME280;63554;48.940;12.050;2024-01-15T14:17:27;95906.91;;;-1.94;100.00
75008;BME280;63554;48.940;12.050;2024-01-15T14:21:31;95914.50;;;-1.91;100.00
75008;BME280;63554;48.940;12.050;2024-01-15T14:25:34;95912.03;;;-1.93;100.00
75008;BME280;63554;48.940;12.050;2024-01-15T14:29:37;95918.34;;;-1.94;100.00
75008;BME280;63554;48.940;12.050;2024-01-15T14:33:40;95924.75;;;-1.88;100.00
75008;BME280;63554;48.940;12.050;2024-01-15T14:37:44;95923.91;;;-1.89;100.00
75008;BME280;63554;48.940;12.050;2024-01-15T14:41:47;95933.41;;;-1.94;100.00
75008;BME280;63554;48.940;12.050;2024-01-15T14:45:50;95924.97;;;-1.98;100.00
75008;BME280;63554;48.940;12.050;2024-01-15T14:49:53;95926.00;;;-1.99;100.00
75008;BME280;63554;48.940;12.050;2024-01-15T14:53:57;95940.38;;;-1.93;100.00
75008;BME280;63554;48.940;12.050;2024-01-15T14:57:59;95928.94;;;-1.94;100.00
75008;BME280;63554;48.940;12.050;2024-01-15T15:02:02;95929.63;;;-2.00;100.00
75008;BME280;63554;48.940;12.050;2024-01-15T15:06:06;95945.84;;;-1.95;100.00
75008;BME280;63554;48.940;12.050;2024-01-15T15:10:11;95939.94;;;-2.05;100.00
75008;BME280;63554;48.940;12.050;2024-01-15T15:14:14;95942.72;;;-1.99;100.00
75008;BME280;63554;48.940;12.050;2024-01-15T15:18:17;95933.47;;;-2.03;100.00
75008;BME280;63554;48.940;12.050;2024-01-15T15:22:21;95944.72;;;-2.01;100.00
75008;BME280;63554;48.940;12.050;2024-01-15T15:26:25;95949.38;;;-2.03;100.00
75008;BME280;63554;48.940;12.050;2024-01-15T15:30:27;95950.19;;;-2.02;100.00
75008;BME280;63554;48.940;12.050;2024-01-15T15:34:30;95950.72;;;-2.07;100.00
75008;BME280;63554;48.940;12.050;2024-01-15T15:38:34;95957.38;;;-2.11;100.00
75008;BME280;63554;48.940;12.050;2024-01-15T15:42:38;95966.31;;;-2.12;100.00
75008;BME280;63554;48.940;12.050;2024-01-15T15:46:41;95961.88;;;-2.11;100.00
75008;BME280;63554;48.940;12.050;2024-01-15T15:50:44;95967.97;;;-2.11;100.00
75008;BME280;63554;48.940;12.050;2024-01-15T15:54:47;95991.94;;;-2.04;100.00
75008;BME280;63554;48.940;12.050;2024-01-15T15:58:51;95991.25;;;-1.98;100.00
75008;BME280;63554;48.940;12.050;2024-01-15T16:02:54;95987.78;;;-1.99;100.00
75008;BME280;63554;48.940;12.050;2024-01-15T16:06:57;95986.97;;;-1.99;100.00
75008;BME280;63554;48.940;12.050;2024-01-15T16:11:00;95994.75;;;-1.97;100.00
75008;BME280;63554;48.940;12.050;2024-01-15T16:15:16;95991.91;;;-1.96;100.00
75008;BME280;63554;48.940;12.050;2024-01-15T16:19:19;95994.91;;;-1.99;100.00
75008;BME280;63554;48.940;12.050;2024-01-15T16:23:42;95992.91;;;-1.97;100.00
75008;BME280;63554;48.940;12.050;2024-01-15T16:28:05;96007.94;;;-1.89;100.00
75008;BME280;63554;48.940;12.050;2024-01-15T16:32:10;95998.97;;;-1.88;100.00
75008;BME280;63554;48.940;12.050;2024-01-15T16:36:12;96009.56;;;-1.88;100.00
75008;BME280;63554;48.940;12.050;2024-01-15T16:40:16;96020.00;;;-1.87;100.00
75008;BME280;63554;48.940;12.050;2024-01-15T16:44:19;96025.69;;;-1.90;100.00
75008;BME280;63554;48.940;12.050;2024-01-15T16:48:23;96023.63;;;-1.56;100.00
75008;BME280;63554;48.940;12.050;2024-01-15T16:52:26;96035.75;;;-1.85;100.00
75008;BME280;63554;48.940;12.050;2024-01-15T16:56:29;96033.63;;;-1.90;100.00
75008;BME280;63554;48.940;12.050;2024-01-15T17:00:32;96056.84;;;-1.92;100.00
75008;BME280;63554;48.940;12.050;2024-01-15T17:04:36;96074.03;;;-1.88;100.00
75008;BME280;63554;48.940;12.050;2024-01-15T17:08:39;96090.94;;;-1.89;100.00
75008;BME280;63554;48.940;12.050;2024-01-15T17:12:43;96090.16;;;-1.97;100.00
75008;BME280;63554;48.940;12.050;2024-01-15T17:16:45;96098.16;;;-2.06;100.00
75008;BME280;63554;48.940;12.050;2024-01-15T17:20:50;96107.41;;;-2.10;100.00
75008;BME280;63554;48.940;12.050;2024-01-15T17:24:53;96123.84;;;-2.14;100.00
75008;BME280;63554;48.940;12.050;2024-01-15T17:28:56;96122.53;;;-2.19;100.00
75008;BME280;63554;48.940;12.050;2024-01-15T17:32:59;96135.63;;;-2.17;100.00
75008;BME280;63554;48.940;12.050;2024-01-15T17:37:03;96145.22;;;-2.16;100.00
75008;BME280;63554;48.940;12.050;2024-01-15T17:41:06;96145.72;;;-2.12;100.00
75008;BME280;63554;48.940;12.050;2024-01-15T17:45:09;96144.56;;;-2.18;100.00
75008;BME280;63554;48.940;12.050;2024-01-15T17:49:11;96145.56;;;-2.19;100.00
75008;BME280;63554;48.940;12.050;2024-01-15T17:53:16;96152.38;;;-2.25;100.00
75008;BME280;63554;48.940;12.050;2024-01-15T17:57:18;96143.94;;;-2.28;100.00
75008;BME280;63554;48.940;12.050;2024-01-15T18:01:21;96150.41;;;-2.31;100.00
75008;BME280;63554;48.940;12.050;2024-01-15T18:05:24;96153.38;;;-2.34;100.00
75008;BME280;63554;48.940;12.050;2024-01-15T18:09:28;96162.22;;;-1.94;100.00
75008;BME280;63554;48.940;12.050;2024-01-15T18:13:31;96167.59;;;-1.71;100.00
75008;BME280;63554;48.940;12.050;2024-01-15T18:17:34;96172.19;;;-2.04;100.00
75008;BME280;63554;48.940;12.050;2024-01-15T18:21:37;96171.72;;;-2.16;100.00
75008;BME280;63554;48.940;12.050;2024-01-15T18:25:41;96194.41;;;-2.22;100.00
75008;BME280;63554;48.940;12.050;2024-01-15T18:29:44;96187.63;;;-2.16;100.00
75008;BME280;63554;48.940;12.050;2024-01-15T18:33:47;96202.69;;;-2.16;100.00
75008;BME280;63554;48.940;12.050;2024-01-15T18:37:50;96212.63;;;-2.19;100.00
75008;BME280;63554;48.940;12.050;2024-01-15T18:41:54;96214.31;;;-2.17;100.00
75008;BME280;63554;48.940;12.050;2024-01-15T18:45:57;96213.47;;;-2.18;100.00
75008;BME280;63554;48.940;12.050;2024-01-15T18:49:59;96225.56;;;-2.15;100.00
75008;BME280;63554;48.940;12.050;2024-01-15T18:54:02;96237.81;;;-2.14;100.00
75008;BME280;63554;48.940;12.050;2024-01-15T18:58:07;96241.47;;;-2.15;100.00
75008;BME280;63554;48.940;12.050;2024-01-15T19:02:10;96250.06;;;-2.22;100.00
75008;BME280;63554;48.940;12.050;2024-01-15T19:06:13;96237.47;;;-2.28;100.00
75008;BME280;63554;48.940;12.050;2024-01-15T19:10:15;96241.47;;;-2.32;100.00
75008;BME280;63554;48.940;12.050;2024-01-15T19:14:19;96239.97;;;-2.34;100.00
75008;BME280;63554;48.940;12.050;2024-01-15T19:18:22;96243.28;;;-2.32;100.00
75008;BME280;63554;48.940;12.050;2024-01-15T19:22:28;96235.19;;;-2.39;100.00
75008;BME280;63554;48.940;12.050;2024-01-15T19:26:30;96246.28;;;-2.44;100.00
75008;BME280;63554;48.940;12.050;2024-01-15T19:30:34;96243.13;;;-2.47;100.00
75008;BME280;63554;48.940;12.050;2024-01-15T19:34:37;96248.41;;;-2.47;100.00
75008;BME280;63554;48.940;12.050;2024-01-15T19:38:41;96255.53;;;-2.40;100.00
75008;BME280;63554;48.940;12.050;2024-01-15T19:42:43;96254.22;;;-2.44;100.00
75008;BME280;63554;48.940;12.050;2024-01-15T19:46:47;96257.69;;;-2.43;100.00
75008;BME280;63554;48.940;12.050;2024-01-15T19:50:50;96268.13;;;-2.42;100.00
75008;BME280;63554;48.940;12.050;2024-01-15T19:54:54;96265.31;;;-2.32;100.00
75008;BME280;63554;48.940;12.050;2024-01-15T19:58:57;96269.94;;;-2.34;100.00
75008;BME280;63554;48.940;12.050;2024-01-15T20:03:02;96285.34;;;-2.21;100.00
75008;BME280;63554;48.940;12.050;2024-01-15T20:07:04;96293.13;;;-2.20;100.00
75008;BME280;63554;48.940;12.050;2024-01-15T20:11:08;96308.84;;;-2.18;100.00
75008;BME280;63554;48.940;12.050;2024-01-15T20:15:11;96294.28;;;-2.22;100.00
75008;BME280;63554;48.940;12.050;2024-01-15T20:19:16;96301.41;;;-2.23;100.00
75008;BME280;63554;48.940;12.050;2024-01-15T20:23:19;96316.50;;;-2.15;99.39
75008;BME280;63554;48.940;12.050;2024-01-15T20:27:21;96319.31;;;-2.16;98.68
75008;BME280;63554;48.940;12.050;2024-01-15T20:31:24;96331.88;;;-2.10;97.62
75008;BME280;63554;48.940;12.050;2024-01-15T20:35:28;96318.31;;;-2.15;97.41
75008;BME280;63554;48.940;12.050;2024-01-15T20:39:31;96319.47;;;-2.18;97.11
75008;BME280;63554;48.940;12.050;2024-01-15T20:43:34;96324.25;;;-2.22;97.57
75008;BME280;63554;48.940;12.050;2024-01-15T20:47:37;96351.41;;;-2.20;97.16
75008;BME280;63554;48.940;12.050;2024-01-15T20:51:41;96344.78;;;-2.24;96.73
75008;BME280;63554;48.940;12.050;2024-01-15T20:55:44;96354.25;;;-2.21;96.22
75008;BME280;63554;48.940;12.050;2024-01-15T20:59:47;96371.94;;;-2.22;96.77
75008;BME280;63554;48.940;12.050;2024-01-15T21:03:52;96365.31;;;-2.26;97.27